createdAt,value
2023-02-23T00:00:28.188Z,6.00
2023-02-23T00:03:29.651Z,6.05
2023-02-23T00:06:33.196Z,6.22
2023-02-23T00:09:37.918Z,6.03
2023-02-23T00:12:40.894Z,5.68
2023-02-23T00:15:42.342Z,5.82
2023-02-23T00:18:50.911Z,4.85
2023-02-23T00:21:53.791Z,5.03
2023-02-23T00:24:57.459Z,5.45
2023-02-23T00:27:59.216Z,5.20
2023-02-23T00:31:04.114Z,4.85
2023-02-23T00:34:06.235Z,5.13
2023-02-23T00:37:08.537Z,4.80
2023-02-23T00:40:14.742Z,5.10
2023-02-23T00:43:18.655Z,4.78
2023-02-23T00:46:24.954Z,4.65
2023-02-23T00:49:26.906Z,4.40
2023-02-23T00:52:29.203Z,4.35
2023-02-23T00:55:30.817Z,3.97
2023-02-23T00:58:32.326Z,3.80
2023-02-23T01:01:34.154Z,3.95
2023-02-23T01:04:35.672Z,4.45
2023-02-23T01:07:38.046Z,4.55
2023-02-23T01:10:41.767Z,4.85
2023-02-23T01:13:47.186Z,3.97
2023-02-23T01:16:48.941Z,4.05
2023-02-23T01:19:50.482Z,4.45
2023-02-23T01:22:52.093Z,4.25
2023-02-23T01:25:53.521Z,4.30
2023-02-23T01:28:57.932Z,4.88
2023-02-23T01:31:59.867Z,5.07
2023-02-23T01:35:04.384Z,4.10
2023-02-23T01:38:06.030Z,4.05
2023-02-23T01:41:09.124Z,4.38
2023-02-23T01:44:13.691Z,4.32
2023-02-23T01:47:16.998Z,4.95
2023-02-23T01:50:19.806Z,4.50
2023-02-23T01:53:22.273Z,4.65
2023-02-23T01:56:29.440Z,5.10
2023-02-23T01:59:39.232Z,4.43
2023-02-23T02:02:42.580Z,4.20
2023-02-23T02:05:45.546Z,4.20
2023-02-23T02:08:54.540Z,3.55
2023-02-23T02:11:56.011Z,4.53
2023-02-23T02:15:00.173Z,4.65
2023-02-23T02:18:23.308Z,4.18
2023-02-23T02:21:41.900Z,3.92
2023-02-23T02:25:01.713Z,3.75
2023-02-23T02:28:34.194Z,4.47
2023-02-23T02:31:38.535Z,4.53
2023-02-23T02:34:55.418Z,4.88
2023-02-23T02:38:16.502Z,4.82
2023-02-23T02:41:28.594Z,4.95
2023-02-23T02:44:49.617Z,4.15
2023-02-23T02:47:58.604Z,3.83
2023-02-23T02:51:10.289Z,4.25
2023-02-23T02:54:41.055Z,4.00
2023-02-23T02:57:46.731Z,4.75
2023-02-23T03:01:09.111Z,4.70
2023-02-23T03:04:41.993Z,4.18
2023-02-23T03:08:18.768Z,4.68
2023-02-23T03:11:39.108Z,4.32
2023-02-23T03:15:27.852Z,4.18
2023-02-23T03:19:17.066Z,4.80
2023-02-23T03:22:42.510Z,4.20
2023-02-23T03:26:24.697Z,3.92
2023-02-23T03:29:59.640Z,4.05
2023-02-23T03:33:29.855Z,4.60
2023-02-23T03:36:54.453Z,4.90
2023-02-23T03:40:22.803Z,4.60
2023-02-23T03:43:53.267Z,4.50
2023-02-23T03:47:15.826Z,4.47
2023-02-23T03:50:53.184Z,4.60
2023-02-23T03:54:22.787Z,5.07
2023-02-23T03:57:45.509Z,5.28
2023-02-23T04:01:09.793Z,5.43
2023-02-23T04:04:30.716Z,5.60
2023-02-23T04:07:53.562Z,5.93
2023-02-23T04:11:21.652Z,6.05
2023-02-23T04:14:31.187Z,6.88
2023-02-23T04:17:33.556Z,7.00
2023-02-23T04:20:35.319Z,6.70
2023-02-23T04:23:40.666Z,6.57
2023-02-23T04:26:42.377Z,7.28
2023-02-23T04:29:44.136Z,6.32
2023-02-23T04:32:46.028Z,7.20
2023-02-23T04:35:48.561Z,7.95
2023-02-23T04:38:50.068Z,7.57
2023-02-23T04:41:51.516Z,8.52
2023-02-23T04:44:53.318Z,8.77
2023-02-23T04:47:54.934Z,8.80
2023-02-23T04:50:56.439Z,9.52
2023-02-23T04:53:58.377Z,9.40
2023-02-23T04:56:59.807Z,8.57
2023-02-23T05:00:02.131Z,9.13
2023-02-23T05:03:03.924Z,7.70
2023-02-23T05:06:05.646Z,9.25
2023-02-23T05:09:07.093Z,9.80
2023-02-23T05:12:08.773Z,10.13
2023-02-23T05:15:11.092Z,9.05
2023-02-23T05:18:12.717Z,10.10
2023-02-23T05:21:14.290Z,8.50
2023-02-23T05:24:17.365Z,9.18
2023-02-23T05:27:19.104Z,8.43
2023-02-23T05:30:20.606Z,9.73
2023-02-23T05:33:22.117Z,8.18
2023-02-23T05:36:23.601Z,9.70
2023-02-23T05:39:25.085Z,9.40
2023-02-23T05:42:26.934Z,9.45
2023-02-23T05:45:28.448Z,9.95
2023-02-23T05:48:30.374Z,9.40
2023-02-23T05:51:34.282Z,13.23
2023-02-23T05:54:35.762Z,8.63
2023-02-23T05:57:37.781Z,9.23
2023-02-23T06:00:39.209Z,10.40
2023-02-23T06:03:40.669Z,9.80
2023-02-23T06:06:42.172Z,11.43
2023-02-23T06:09:44.645Z,9.80
2023-02-23T06:12:46.606Z,10.50
2023-02-23T06:15:49.492Z,12.73
2023-02-23T06:18:51.099Z,12.60
2023-02-23T06:21:55.452Z,11.63
2023-02-23T06:24:56.946Z,11.52
2023-02-23T06:27:58.400Z,13.15
2023-02-23T06:31:00.030Z,15.30
2023-02-23T06:34:01.514Z,15.43
2023-02-23T06:37:03.141Z,13.70
2023-02-23T06:40:05.914Z,12.60
2023-02-23T06:43:07.485Z,11.82
2023-02-23T06:46:09.046Z,12.52
2023-02-23T06:49:12.037Z,12.95
2023-02-23T06:52:14.239Z,12.57
2023-02-23T06:55:15.923Z,11.80
2023-02-23T06:58:17.748Z,12.65
2023-02-23T07:01:19.676Z,12.35
2023-02-23T07:04:21.453Z,12.85
2023-02-23T07:07:23.557Z,12.80
2023-02-23T07:10:25.060Z,12.73
2023-02-23T07:13:26.598Z,13.73
2023-02-23T07:16:29.127Z,12.07
2023-02-23T07:19:32.189Z,12.70
2023-02-23T07:22:34.222Z,14.48
2023-02-23T07:25:36.391Z,14.25
2023-02-23T07:28:38.230Z,13.80
2023-02-23T07:31:40.416Z,13.48
2023-02-23T07:34:42.007Z,12.45
2023-02-23T07:37:43.641Z,13.32
2023-02-23T07:40:45.276Z,13.88
2023-02-23T07:43:46.728Z,13.60
2023-02-23T07:46:48.463Z,13.32
2023-02-23T07:49:50.129Z,12.50
2023-02-23T07:52:52.290Z,12.27
2023-02-23T07:55:58.377Z,11.50
2023-02-23T07:58:59.866Z,14.60
2023-02-23T08:02:01.417Z,14.38
2023-02-23T08:05:03.817Z,15.85
2023-02-23T08:08:05.428Z,14.77
2023-02-23T08:11:06.930Z,13.73
2023-02-23T08:14:10.432Z,13.65
2023-02-23T08:17:12.590Z,16.10
2023-02-23T08:20:14.214Z,14.93
2023-02-23T08:23:18.068Z,13.07
2023-02-23T08:26:19.591Z,13.57
2023-02-23T08:29:21.337Z,13.18
2023-02-23T08:32:22.827Z,13.82
2023-02-23T08:35:25.488Z,13.75
2023-02-23T08:38:27.947Z,13.23
2023-02-23T08:41:29.556Z,13.10
2023-02-23T08:44:31.070Z,14.52
2023-02-23T08:47:34.255Z,15.32
2023-02-23T08:50:35.915Z,14.27
2023-02-23T08:53:37.446Z,14.00
2023-02-23T08:56:39.060Z,14.88
2023-02-23T08:59:41.239Z,14.63
2023-02-23T09:02:45.408Z,14.30
2023-02-23T09:05:47.115Z,14.00
2023-02-23T09:08:48.725Z,13.95
2023-02-23T09:11:50.209Z,12.88
2023-02-23T09:14:53.688Z,13.52
2023-02-23T09:17:55.167Z,11.88
2023-02-23T09:20:56.855Z,12.85
2023-02-23T09:23:58.535Z,13.32
2023-02-23T09:26:59.993Z,12.65
2023-02-23T09:30:01.798Z,11.43
2023-02-23T09:33:03.855Z,12.45
2023-02-23T09:36:12.832Z,11.63
2023-02-23T09:39:14.311Z,11.10
2023-02-23T09:42:38.312Z,12.07
2023-02-23T09:45:51.475Z,11.13
2023-02-23T09:48:56.675Z,11.38
2023-02-23T09:52:00.649Z,12.00
2023-02-23T09:55:02.420Z,11.75
2023-02-23T09:58:18.263Z,11.40
2023-02-23T10:01:41.379Z,11.00
2023-02-23T10:04:49.144Z,9.35
2023-02-23T10:08:02.494Z,9.07
2023-02-23T10:11:23.334Z,10.00
2023-02-23T10:14:36.603Z,7.60
2023-02-23T10:18:09.064Z,8.30
2023-02-23T10:21:36.055Z,8.07
2023-02-23T10:24:42.313Z,8.70
2023-02-23T10:27:49.238Z,9.18
2023-02-23T10:30:54.842Z,9.85
2023-02-23T10:34:00.043Z,10.25
2023-02-23T10:37:04.538Z,9.45
2023-02-23T10:40:07.024Z,7.97
2023-02-23T10:43:12.874Z,6.70
2023-02-23T10:46:22.381Z,7.80
2023-02-23T10:49:30.426Z,7.28
2023-02-23T10:52:46.806Z,7.22
2023-02-23T10:56:01.390Z,7.30
2023-02-23T10:59:02.909Z,8.63
2023-02-23T11:02:23.530Z,8.68
2023-02-23T11:05:34.099Z,7.55
2023-02-23T11:08:40.350Z,7.55
2023-02-23T11:11:59.581Z,7.28
2023-02-23T11:15:22.143Z,8.38
2023-02-23T11:18:26.114Z,8.38
2023-02-23T11:24:36.758Z,7.20
2023-02-23T11:27:38.204Z,7.38
2023-02-23T11:30:43.044Z,8.20
2023-02-23T11:33:47.129Z,7.35
2023-02-23T11:40:02.334Z,7.90
2023-02-23T11:43:16.511Z,7.82
2023-02-23T11:46:22.499Z,8.35
2023-02-23T11:49:31.891Z,7.80
2023-02-23T11:52:36.387Z,8.32
2023-02-23T11:55:38.433Z,8.88
2023-02-23T11:58:45.781Z,8.93
2023-02-23T12:01:52.502Z,8.90
2023-02-23T12:05:06.505Z,10.10
2023-02-23T12:08:18.443Z,9.35
2023-02-23T12:11:25.285Z,9.18
2023-02-23T12:14:37.815Z,9.38
2023-02-23T12:17:48.024Z,9.65
2023-02-23T12:20:54.223Z,8.18
2023-02-23T12:24:14.573Z,8.63
2023-02-23T12:27:29.649Z,9.10
2023-02-23T12:30:39.960Z,9.45
2023-02-23T12:33:48.329Z,10.23
2023-02-23T12:37:01.655Z,8.95
2023-02-23T12:40:16.101Z,10.52
2023-02-23T12:43:26.927Z,9.07
2023-02-23T12:46:40.516Z,8.07
2023-02-23T12:49:51.129Z,9.02
2023-02-23T12:53:12.368Z,9.57
2023-02-23T12:56:24.642Z,9.10
2023-02-23T12:59:46.444Z,8.73
2023-02-23T13:03:09.930Z,8.80
2023-02-23T13:06:24.957Z,8.90
2023-02-23T13:09:47.947Z,8.80
2023-02-23T13:13:02.079Z,8.95
2023-02-23T13:16:30.093Z,9.27
2023-02-23T13:19:46.835Z,8.73
2023-02-23T13:22:57.340Z,8.60
2023-02-23T13:26:46.351Z,10.05
2023-02-23T13:29:50.557Z,8.68
2023-02-23T13:32:52.657Z,8.88
2023-02-23T13:35:55.216Z,8.23
2023-02-23T13:39:33.978Z,8.25
2023-02-23T13:42:44.507Z,6.72
2023-02-23T13:45:55.242Z,7.47
2023-02-23T13:49:02.388Z,7.55
2023-02-23T13:52:23.538Z,8.32
2023-02-23T13:55:34.660Z,7.25
2023-02-23T13:58:48.653Z,8.55
2023-02-23T14:01:53.244Z,8.05
2023-02-23T14:05:02.499Z,7.60
2023-02-23T14:08:06.141Z,7.95
2023-02-23T14:11:07.740Z,7.70
2023-02-23T14:14:13.391Z,8.48
2023-02-23T14:17:14.788Z,7.15
2023-02-23T14:20:29.912Z,8.60
2023-02-23T14:23:42.215Z,7.50
2023-02-23T14:26:46.697Z,8.07
2023-02-23T14:30:15.116Z,7.93
2023-02-23T14:33:48.459Z,7.82
2023-02-23T14:36:53.107Z,5.75
2023-02-23T14:39:56.841Z,7.38
2023-02-23T14:43:00.868Z,7.93
2023-02-23T14:49:14.458Z,6.97
2023-02-23T14:52:29.151Z,7.22
2023-02-23T14:55:35.249Z,7.13
2023-02-23T14:58:36.865Z,8.32
2023-02-23T15:01:39.699Z,8.00
2023-02-23T15:04:41.981Z,7.38
2023-02-23T15:07:45.350Z,7.38
2023-02-23T15:10:50.649Z,7.32
2023-02-23T15:13:52.419Z,6.30
2023-02-23T15:16:56.358Z,7.35
2023-02-23T15:20:14.878Z,6.75
2023-02-23T15:23:19.365Z,9.07
2023-02-23T15:26:31.737Z,7.40
2023-02-23T15:29:33.670Z,5.93
2023-02-23T15:32:37.865Z,6.57
2023-02-23T15:35:47.379Z,6.30
2023-02-23T15:38:55.121Z,7.05
2023-02-23T15:41:56.717Z,5.95
2023-02-23T15:45:01.704Z,5.30
2023-02-23T15:48:06.410Z,5.35
2023-02-23T15:51:17.231Z,6.32
2023-02-23T15:54:32.419Z,6.75
2023-02-23T15:57:47.247Z,7.28
2023-02-23T16:01:06.162Z,7.25
2023-02-23T16:04:18.972Z,6.82
2023-02-23T16:07:21.970Z,6.85
2023-02-23T16:10:26.762Z,6.50
2023-02-23T16:13:28.631Z,8.02
2023-02-23T16:16:30.449Z,7.65
2023-02-23T16:19:32.462Z,8.45
2023-02-23T16:22:34.334Z,8.40
2023-02-23T16:25:35.803Z,7.40
2023-02-23T16:28:42.690Z,7.20
2023-02-23T16:31:50.062Z,8.60
2023-02-23T16:34:59.765Z,7.90
2023-02-23T16:38:03.360Z,8.85
2023-02-23T16:41:07.206Z,7.78
2023-02-23T16:44:18.037Z,9.07
2023-02-23T16:47:22.584Z,7.80
2023-02-23T16:50:25.161Z,7.20
2023-02-23T16:53:26.723Z,7.97
2023-02-23T16:56:30.702Z,7.53
2023-02-23T16:59:32.510Z,9.10
2023-02-23T17:02:35.042Z,10.55
2023-02-23T17:05:36.631Z,11.38
2023-02-23T17:08:43.420Z,10.93
2023-02-23T17:11:48.250Z,10.80
2023-02-23T17:14:50.036Z,10.40
2023-02-23T17:17:53.245Z,10.43
2023-02-23T17:20:56.656Z,21.80
2023-02-23T17:24:02.711Z,53.10
2023-02-23T17:27:04.352Z,44.85
2023-02-23T17:30:07.151Z,44.55
2023-02-23T17:33:09.719Z,31.63
2023-02-23T17:36:14.865Z,26.05
2023-02-23T17:39:16.802Z,23.15
2023-02-23T17:42:18.776Z,21.00
2023-02-23T17:45:20.229Z,28.95
2023-02-23T17:48:23.152Z,17.92
2023-02-23T17:51:24.684Z,13.43
2023-02-23T17:54:27.757Z,14.23
2023-02-23T17:57:30.726Z,15.20
2023-02-23T18:00:37.665Z,14.20
2023-02-23T18:03:39.604Z,16.30
2023-02-23T18:06:41.508Z,13.55
2023-02-23T18:09:43.390Z,13.43
2023-02-23T18:12:45.014Z,11.88
2023-02-23T18:15:51.438Z,11.23
2023-02-23T18:18:53.676Z,10.63
2023-02-23T18:21:56.107Z,11.32
2023-02-23T18:24:58.229Z,11.70
2023-02-23T18:28:00.127Z,12.02
2023-02-23T18:31:02.185Z,16.15
2023-02-23T18:34:03.701Z,14.80
2023-02-23T18:37:05.663Z,15.38
2023-02-23T18:40:07.636Z,15.93
2023-02-23T18:43:09.568Z,13.20
2023-02-23T18:46:12.593Z,14.13
2023-02-23T18:49:16.822Z,12.98
2023-02-23T18:52:18.313Z,13.90
2023-02-23T18:55:22.093Z,13.23
2023-02-23T18:58:24.208Z,11.73
2023-02-23T19:01:28.772Z,12.77
2023-02-23T19:04:30.256Z,12.60
2023-02-23T19:07:32.399Z,12.40
2023-02-23T19:10:33.956Z,13.18
2023-02-23T19:13:38.057Z,11.32
2023-02-23T19:19:42.512Z,10.45
2023-02-23T19:22:44.160Z,11.10
2023-02-23T19:25:49.779Z,9.77
2023-02-23T19:28:51.257Z,11.13
2023-02-23T19:31:52.842Z,10.88
2023-02-23T19:34:54.416Z,11.93
2023-02-23T19:37:57.491Z,11.13
2023-02-23T19:40:59.071Z,11.55
2023-02-23T19:44:00.809Z,11.20
2023-02-23T19:47:02.469Z,10.85
2023-02-23T19:50:04.216Z,10.68
2023-02-23T19:53:05.718Z,11.15
2023-02-23T19:56:10.851Z,10.07
2023-02-23T19:59:12.655Z,10.25
2023-02-23T20:02:14.202Z,10.02
2023-02-23T20:05:16.790Z,11.68
2023-02-23T20:08:19.317Z,10.73
2023-02-23T20:11:22.353Z,18.58
2023-02-23T20:14:24.957Z,17.23
2023-02-23T20:17:26.508Z,14.75
2023-02-23T20:20:29.053Z,12.98
2023-02-23T20:23:30.548Z,10.95
2023-02-23T20:26:35.440Z,11.85
2023-02-23T20:29:37.078Z,11.50
2023-02-23T20:32:38.873Z,12.45
2023-02-23T20:35:41.337Z,12.20
2023-02-23T20:38:43.047Z,10.45
2023-02-23T20:41:45.560Z,11.98
2023-02-23T20:44:47.034Z,10.00
2023-02-23T20:47:53.149Z,11.38
2023-02-23T20:50:55.327Z,11.10
2023-02-23T20:53:56.955Z,10.63
2023-02-23T20:57:07.503Z,10.95
2023-02-23T21:00:13.533Z,12.13
2023-02-23T21:03:14.972Z,11.40
2023-02-23T21:06:16.809Z,12.27
2023-02-23T21:09:18.340Z,10.88
2023-02-23T21:12:20.466Z,12.80
2023-02-23T21:15:22.011Z,11.43
2023-02-23T21:18:23.657Z,9.68
2023-02-23T21:21:26.264Z,9.93
2023-02-23T21:24:28.848Z,8.93
2023-02-23T21:27:30.388Z,10.75
2023-02-23T21:30:31.922Z,12.15
2023-02-23T21:33:33.362Z,10.88
2023-02-23T21:36:35.573Z,12.30
2023-02-23T21:39:37.363Z,11.73
2023-02-23T21:42:40.742Z,11.77
2023-02-23T21:45:47.202Z,10.73
2023-02-23T21:48:49.226Z,11.13
2023-02-23T21:51:52.469Z,10.85
2023-02-23T21:54:55.245Z,11.27
2023-02-23T21:57:58.164Z,11.02
2023-02-23T22:00:59.663Z,11.40
2023-02-23T22:04:01.240Z,10.85
2023-02-23T22:07:02.768Z,12.05
2023-02-23T22:10:05.261Z,11.98
2023-02-23T22:13:06.828Z,10.80
2023-02-23T22:16:08.699Z,12.32
2023-02-23T22:19:12.017Z,11.07
2023-02-23T22:22:13.498Z,9.43
2023-02-23T22:25:16.997Z,10.55
2023-02-23T22:28:18.476Z,10.20
2023-02-23T22:31:20.508Z,10.27
2023-02-23T22:34:22.634Z,10.23
2023-02-23T22:37:32.006Z,10.73
2023-02-23T22:40:34.934Z,10.68
2023-02-23T22:43:37.771Z,9.35
2023-02-23T22:46:41.242Z,11.35
2023-02-23T22:49:42.671Z,10.27
2023-02-23T22:52:44.223Z,11.35
2023-02-23T22:55:47.102Z,10.93
2023-02-23T22:58:52.086Z,10.30
2023-02-23T23:01:56.309Z,10.88
2023-02-23T23:08:00.127Z,10.85
2023-02-23T23:11:09.864Z,10.75
2023-02-23T23:14:12.221Z,11.45
2023-02-23T23:17:15.062Z,10.73
2023-02-23T23:20:25.588Z,12.02
2023-02-23T23:23:27.201Z,10.60
2023-02-23T23:26:29.558Z,12.25
2023-02-23T23:29:31.104Z,10.65
2023-02-23T23:32:33.474Z,10.20
2023-02-23T23:35:34.974Z,10.68
2023-02-23T23:38:38.459Z,11.43
2023-02-23T23:41:40.344Z,11.80
2023-02-23T23:44:42.052Z,9.77
2023-02-23T23:47:45.019Z,11.02
2023-02-23T23:50:47.303Z,10.25
2023-02-23T23:53:51.662Z,10.60
2023-02-23T23:56:54.097Z,12.18
2023-02-23T23:59:56.279Z,11.35
